Time;durP1;ratioP1;P1;durP2;ratioP2;P2;SDS_P1;SDS_P2;PMS_P1;PMS_P2;Temp;Humidity;BMP_temperature;BMP_pressure;BME280_temperature;BME280_humidity;BME280_pressure;Samples;Min_cycle;Max_cycle;Signal;HPM_P1;HPM_P2
2021/09/05 00:05:01;;;;;;;8.5;4.9;;;;;;;9.84;100;99070.84;;;;
2021/09/05 00:15:00;;;;;;;8.8;5.7;;;;;;;9.71;100;99080.44;;;;
2021/09/05 00:24:59;;;;;;;8.5;5.7;;;;;;;9.52;100;99072.33;;;;
2021/09/05 00:34:58;;;;;;;9;5.1;;;;;;;9.41;100;99080.8;;;;
2021/09/05 00:44:57;;;;;;;10.6;6.3;;;;;;;9.22;100;99075.39;;;;
2021/09/05 00:54:56;;;;;;;9;4.7;;;;;;;9.02;100;99076.39;;;;
2021/09/05 01:04:54;;;;;;;7.8;5;;;;;;;8.97;100;99073.77;;;;
2021/09/05 01:14:53;;;;;;;7.3;5.3;;;;;;;8.84;100;99073.64;;;;
2021/09/05 01:24:52;;;;;;;7.8;5;;;;;;;8.75;100;99086.08;;;;
2021/09/05 01:34:51;;;;;;;8.6;5;;;;;;;8.67;100;99092.09;;;;
2021/09/05 01:44:52;;;;;;;8.6;5.9;;;;;;;8.64;100;99104.2;;;;
2021/09/05 01:54:48;;;;;;;12.9;6.2;;;;;;;8.51;100;99112.89;;;;
2021/09/05 02:04:47;;;;;;;9.1;5.8;;;;;;;8.48;100;99114.26;;;;
2021/09/05 02:14:46;;;;;;;11.3;5.6;;;;;;;8.42;100;99119.95;;;;
2021/09/05 02:24:45;;;;;;;8.9;4.8;;;;;;;8.38;100;99130.45;;;;
2021/09/05 02:34:43;;;;;;;11.9;7.3;;;;;;;8.27;100;99123.52;;;;
2021/09/05 02:44:42;;;;;;;8.2;5.6;;;;;;;8.18;100;99124.39;;;;
2021/09/05 02:54:41;;;;;;;9.1;5.6;;;;;;;7.98;100;99123.41;;;;
2021/09/05 03:04:39;;;;;;;5.9;3.7;;;;;;;7.8;100;99134.8;;;;
2021/09/05 03:14:38;;;;;;;8.2;5.2;;;;;;;7.68;100;99130.81;;;;
2021/09/05 03:24:37;;;;;;;12.7;6.6;;;;;;;7.51;100;99126.6;;;;
2021/09/05 03:34:35;;;;;;;7.2;5.9;;;;;;;7.4;100;99132.27;;;;
2021/09/05 03:44:34;;;;;;;8.3;5.3;;;;;;;7.33;100;99137.11;;;;
2021/09/05 03:54:33;;;;;;;9.5;6.5;;;;;;;7.25;100;99151.9;;;;
2021/09/05 04:04:31;;;;;;;12.7;6.8;;;;;;;7.21;100;99161.55;;;;
2021/09/05 04:14:30;;;;;;;9.5;5.6;;;;;;;7.24;100;99163.69;;;;
2021/09/05 04:24:29;;;;;;;11.5;7.2;;;;;;;7.37;100;99186.44;;;;
2021/09/05 04:34:27;;;;;;;9.5;6.7;;;;;;;7.45;100;99188.58;;;;
2021/09/05 04:44:26;;;;;;;14.5;8.2;;;;;;;7.55;100;99196.59;;;;
2021/09/05 04:54:25;;;;;;;11.6;7.3;;;;;;;7.69;100;99210.23;;;;
2021/09/05 05:04:23;;;;;;;8.7;6.4;;;;;;;7.7;100;99215.34;;;;
2021/09/05 05:14:22;;;;;;;7.2;5.7;;;;;;;8.31;100;99234.7;;;;
2021/09/05 05:24:22;;;;;;;10.2;6.4;;;;;;;8.91;100;99235.4;;;;
2021/09/05 05:34:20;;;;;;;10.4;6.4;;;;;;;9.46;100;99252.94;;;;
2021/09/05 05:44:22;;;;;;;8.5;5.7;;;;;;;9.94;100;99269.94;;;;
2021/09/05 05:54:18;;;;;;;15.5;6;;;;;;;10.36;100;99271.89;;;;
2021/09/05 06:04:22;;;;;;;11.3;5.2;;;;;;;10.71;100;99282.2;;;;
2021/09/05 06:14:18;;;;;;;7.6;5.2;;;;;;;11.05;100;99295.45;;;;
2021/09/05 06:24:18;;;;;;;10.6;7.1;;;;;;;11.2;100;99294.42;;;;
2021/09/05 06:34:18;;;;;;;7.4;4.7;;;;;;;11.39;100;99298.69;;;;
2021/09/05 06:44:13;;;;;;;6.7;4.7;;;;;;;11.58;100;99306.75;;;;
2021/09/05 06:54:12;;;;;;;8.3;3.9;;;;;;;12.09;100;99318.27;;;;
2021/09/05 07:04:11;;;;;;;7.1;3.5;;;;;;;12.69;100;99328.96;;;;
2021/09/05 07:14:11;;;;;;;6.3;4.2;;;;;;;13.33;100;99343.27;;;;
2021/09/05 07:24:10;;;;;;;8.9;5.2;;;;;;;13.9;100;99355.11;;;;
2021/09/05 07:34:09;;;;;;;6.6;2.5;;;;;;;14.34;100;99367.78;;;;
2021/09/05 07:44:09;;;;;;;4.5;2.3;;;;;;;14.74;100;99369.38;;;;
2021/09/05 07:54:08;;;;;;;3.8;2.2;;;;;;;15.1;100;99388.11;;;;
2021/09/05 08:04:08;;;;;;;7.2;3.4;;;;;;;15.46;100;99391.35;;;;
2021/09/05 08:14:07;;;;;;;4.9;2.2;;;;;;;15.82;100;99412.79;;;;
2021/09/05 08:24:07;;;;;;;3.9;1.6;;;;;;;15.25;100;99411.3;;;;
2021/09/05 08:34:06;;;;;;;3.7;2;;;;;;;16.06;100;99425.86;;;;
2021/09/05 08:44:06;;;;;;;3.6;2.2;;;;;;;15.92;100;99426.05;;;;
2021/09/05 08:54:06;;;;;;;3.6;1.9;;;;;;;16.09;100;99433.38;;;;
2021/09/05 09:04:06;;;;;;;4.4;1.6;;;;;;;16.24;100;99432.88;;;;
2021/09/05 09:14:05;;;;;;;2.9;1.4;;;;;;;16.23;100;99442.15;;;;
2021/09/05 09:24:05;;;;;;;4.5;2.2;;;;;;;16.42;99.22559;99442.56;;;;
2021/09/05 09:34:06;;;;;;;2.7;1.5;;;;;;;16.47;99.4082;99447.84;;;;
2021/09/05 09:44:05;;;;;;;3.4;1.8;;;;;;;16.03;100;99438.2;;;;
2021/09/05 09:54:05;;;;;;;1.7;1.1;;;;;;;16.48;95.55664;99441.28;;;;
2021/09/05 10:04:05;;;;;;;6.7;1.3;;;;;;;16.6;94.14648;99446.06;;;;
2021/09/05 10:14:04;;;;;;;2.8;1.5;;;;;;;16.83;92.86328;99447.42;;;;
2021/09/05 10:24:04;;;;;;;2.4;1.1;;;;;;;16.74;92.7666;99446.64;;;;
2021/09/05 10:34:06;;;;;;;2.4;1.1;;;;;;;17.19;89.26465;99429.74;;;;
2021/09/05 10:44:04;;;;;;;1.7;0.9;;;;;;;17.28;78.55957;99439.48;;;;
2021/09/05 10:54:08;;;;;;;5.4;1.2;;;;;;;17.2;74.91211;99439.52;;;;
2021/09/05 11:04:46;;;;;;;3.2;1.3;;;;;;;17.3;75.2627;99437.21;;;;
2021/09/05 11:14:07;;;;;;;3.3;1.4;;;;;;;17.62;73.99805;99443.91;;;;
2021/09/05 11:24:07;;;;;;;2.4;1.4;;;;;;;17.4;78.39844;99442.27;;;;
2021/09/05 11:34:04;;;;;;;4;1.1;;;;;;;17.32;79.91699;99436.89;;;;
2021/09/05 11:44:04;;;;;;;3;1.5;;;;;;;17.27;78.36328;99435.15;;;;
2021/09/05 11:54:04;;;;;;;2.5;1.4;;;;;;;17.54;78.13574;99431.1;;;;
2021/09/05 12:04:04;;;;;;;2;1.1;;;;;;;17.78;80.0459;99428.52;;;;
2021/09/05 12:14:04;;;;;;;2.4;0.8;;;;;;;17.68;73.50293;99420.76;;;;
2021/09/05 12:24:04;;;;;;;2.8;0.6;;;;;;;17.66;76.15039;99417.58;;;;
2021/09/05 12:34:04;;;;;;;3.9;1.2;;;;;;;17.78;70.03711;99408.64;;;;
2021/09/05 12:44:05;;;;;;;2.4;1.3;;;;;;;18.08;74.09766;99413.63;;;;
2021/09/05 12:54:06;;;;;;;2.8;1.1;;;;;;;17.97;69.96484;99417.14;;;;
2021/09/05 13:04:05;;;;;;;2.8;1.4;;;;;;;18.07;70.36133;99417.52;;;;
2021/09/05 13:14:05;;;;;;;2.5;1.3;;;;;;;17.85;75.13867;99415.15;;;;
2021/09/05 13:24:05;;;;;;;3.5;1.6;;;;;;;17.99;72.11719;99420.31;;;;
2021/09/05 13:34:05;;;;;;;5.3;2;;;;;;;18.17;76.0752;99416.28;;;;
2021/09/05 13:44:05;;;;;;;1.5;0.7;;;;;;;18.31;74.67578;99427.69;;;;
2021/09/05 13:54:05;;;;;;;5.3;2.3;;;;;;;18.52;70.71973;99428.45;;;;
2021/09/05 14:04:06;;;;;;;2.7;1.2;;;;;;;18.25;71.56152;99420.86;;;;
2021/09/05 14:14:05;;;;;;;1.5;0.8;;;;;;;18.62;71.45898;99429.13;;;;
2021/09/05 14:24:05;;;;;;;2.9;0.8;;;;;;;18.82;68.7627;99420.83;;;;
2021/09/05 15:04:12;;;;;;;3.2;0.9;;;;;;;18.88;64.9873;99424.92;;;;
2021/09/05 15:14:05;;;;;;;2.3;0.8;;;;;;;21.35;59.50586;99428.21;;;;
2021/09/05 15:24:10;;;;;;;1.7;0.8;;;;;;;22.79;55.56738;99420.45;;;;
2021/09/05 15:34:33;;;;;;;2.5;1;;;;;;;24.19;47.54395;99417.28;;;;
2021/09/05 15:54:17;;;;;;;4.3;1.4;;;;;;;22.96;46.30273;99417.98;;;;
2021/09/05 16:24:11;;;;;;;2.5;1.1;;;;;;;22.56;47.74707;99412.97;;;;
2021/09/05 16:34:16;;;;;;;4.9;2.2;;;;;;;19.77;57.58105;99417.51;;;;
2021/09/05 16:44:12;;;;;;;4;1.7;;;;;;;17.52;68.35254;99414.3;;;;
2021/09/05 16:54:12;;;;;;;3.3;1.5;;;;;;;16.39;74.2959;99420.64;;;;
2021/09/05 17:04:12;;;;;;;2.6;1.2;;;;;;;15.42;81.66211;99428.42;;;;
2021/09/05 17:14:12;;;;;;;3;1.7;;;;;;;14.65;85.08789;99425.52;;;;
2021/09/05 17:24:12;;;;;;;4.2;1.7;;;;;;;14.04;91.0918;99439.85;;;;
2021/09/05 17:34:11;;;;;;;2.9;1.5;;;;;;;13.48;93.90625;99435.77;;;;
2021/09/05 17:44:11;;;;;;;4.4;2.5;;;;;;;12.95;99.10352;99449.05;;;;
2021/09/05 17:54:11;;;;;;;2.5;1.3;;;;;;;12.73;99.77441;99450.88;;;;
2021/09/05 18:04:10;;;;;;;4.8;2.2;;;;;;;12.45;100;99460.86;;;;
2021/09/05 18:14:14;;;;;;;3.6;1.9;;;;;;;12.14;100;99473.3;;;;
2021/09/05 18:24:10;;;;;;;3.5;1.9;;;;;;;11.9;100;99482.33;;;;
2021/09/05 18:34:10;;;;;;;5.1;3.1;;;;;;;11.55;100;99477.42;;;;
2021/09/05 18:44:11;;;;;;;4.7;2.8;;;;;;;11.18;100;99490.86;;;;
2021/09/05 18:54:05;;;;;;;5.8;2.5;;;;;;;10.96;100;99477.92;;;;
2021/09/05 19:04:05;;;;;;;5.1;2.9;;;;;;;10.74;100;99483.83;;;;
2021/09/05 19:14:03;;;;;;;5.3;3.1;;;;;;;10.66;100;99486.33;;;;
2021/09/05 19:24:02;;;;;;;5.6;2.4;;;;;;;10.5;100;99478.42;;;;
2021/09/05 19:34:02;;;;;;;3.7;2.1;;;;;;;10.36;100;99487.45;;;;
2021/09/05 19:44:00;;;;;;;5.4;3;;;;;;;10.3;100;99481.32;;;;
2021/09/05 19:53:59;;;;;;;4.2;2.7;;;;;;;10.17;100;99481.17;;;;
2021/09/05 20:03:59;;;;;;;9.3;3.2;;;;;;;10.04;100;99485.27;;;;
2021/09/05 20:13:58;;;;;;;6.7;2.5;;;;;;;9.96;100;99489.36;;;;
2021/09/05 20:23:56;;;;;;;4.7;3;;;;;;;9.84;100;99493.51;;;;
2021/09/05 20:33:55;;;;;;;5.4;2.4;;;;;;;9.76;100;99502.16;;;;
2021/09/05 20:43:54;;;;;;;5.3;2.8;;;;;;;9.57;100;99499.34;;;;
2021/09/05 20:53:53;;;;;;;4.4;2.5;;;;;;;9.48;100;99495.61;;;;
2021/09/05 21:03:52;;;;;;;5;2.6;;;;;;;9.38;100;99498.36;;;;
2021/09/05 21:13:51;;;;;;;5.7;3;;;;;;;9.32;100;99502.16;;;;
2021/09/05 21:23:51;;;;;;;6.5;2.1;;;;;;;9.23;100;99488.5;;;;
2021/09/05 21:33:49;;;;;;;9.4;3.4;;;;;;;9.28;100;99490.34;;;;
2021/09/05 21:43:47;;;;;;;5.4;3.4;;;;;;;9.21;100;99496.02;;;;
2021/09/05 21:53:46;;;;;;;3.9;2.3;;;;;;;8.97;100;99503.11;;;;
2021/09/05 22:03:45;;;;;;;4.6;2.6;;;;;;;8.68;100;99515.58;;;;
2021/09/05 22:13:43;;;;;;;4.9;3.5;;;;;;;8.41;100;99507.8;;;;
2021/09/05 22:23:42;;;;;;;5.9;3.3;;;;;;;8.17;100;99507.53;;;;
2021/09/05 22:33:41;;;;;;;5;2.9;;;;;;;7.94;100;99514.25;;;;
2021/09/05 22:43:40;;;;;;;5.5;3.1;;;;;;;7.58;100;99508.02;;;;
2021/09/05 22:53:38;;;;;;;5.1;2.5;;;;;;;7.26;100;99515.42;;;;
2021/09/05 23:03:37;;;;;;;4;2.4;;;;;;;6.97;100;99506.2;;;;
2021/09/05 23:13:35;;;;;;;3.6;2.2;;;;;;;6.76;100;99507.98;;;;
2021/09/05 23:23:34;;;;;;;4.5;3;;;;;;;6.55;100;99509.73;;;;
2021/09/05 23:33:32;;;;;;;6.5;2.8;;;;;;;6.32;100;99490.55;;;;
2021/09/05 23:43:31;;;;;;;5;2.3;;;;;;;6.21;100;99488.88;;;;
2021/09/05 23:53:30;;;;;;;4.9;2.3;;;;;;;5.99;100;99484.44;;;;
